createdAt,value
2018-03-16T00:00:48.279Z,21.10
2018-03-16T00:03:15.705Z,21.80
2018-03-16T00:05:48.483Z,20.50
2018-03-16T00:08:15.929Z,22.03
2018-03-16T00:10:44.075Z,21.34
2018-03-16T00:13:11.548Z,23.30
2018-03-16T00:15:40.333Z,23.20
2018-03-16T00:18:08.303Z,21.57
2018-03-16T00:20:36.053Z,22.73
2018-03-16T00:23:03.744Z,24.10
2018-03-16T00:25:31.554Z,23.50
2018-03-16T00:27:59.176Z,24.63
2018-03-16T00:30:26.613Z,23.57
2018-03-16T00:32:55.053Z,24.20
2018-03-16T00:35:22.459Z,26.40
2018-03-16T00:37:49.899Z,23.20
2018-03-16T00:40:17.296Z,26.15
2018-03-16T00:42:44.992Z,23.83
2018-03-16T00:45:13.695Z,23.90
2018-03-16T00:47:41.433Z,24.60
2018-03-16T00:50:08.997Z,24.47
2018-03-16T00:52:36.526Z,23.53
2018-03-16T00:55:04.157Z,22.67
2018-03-16T00:57:31.568Z,23.80
2018-03-16T00:59:59.025Z,23.60
2018-03-16T01:02:26.369Z,23.60
2018-03-16T01:04:53.748Z,23.33
2018-03-16T01:07:21.166Z,23.30
2018-03-16T01:09:48.571Z,22.05
2018-03-16T01:12:16.022Z,24.42
2018-03-16T01:14:43.417Z,21.48
2018-03-16T01:17:10.844Z,23.52
2018-03-16T01:19:38.932Z,22.33
2018-03-16T01:22:06.312Z,21.60
2018-03-16T01:24:33.753Z,21.30
2018-03-16T01:27:02.116Z,22.27
2018-03-16T01:29:29.517Z,21.43
2018-03-16T01:31:56.929Z,21.33
2018-03-16T01:34:24.425Z,21.47
2018-03-16T01:36:51.842Z,20.40
2018-03-16T01:39:19.315Z,21.40
2018-03-16T01:41:47.477Z,22.13
2018-03-16T01:44:14.867Z,19.77
2018-03-16T01:46:42.318Z,20.48
2018-03-16T01:49:09.728Z,20.20
2018-03-16T01:51:37.116Z,19.27
2018-03-16T01:54:04.582Z,19.67
2018-03-16T01:56:31.968Z,19.47
2018-03-16T01:58:59.368Z,20.83
2018-03-16T02:01:26.749Z,18.80
2018-03-16T02:03:54.184Z,17.07
2018-03-16T02:06:21.571Z,20.20
2018-03-16T02:08:49.041Z,17.52
2018-03-16T02:11:16.433Z,17.50
2018-03-16T02:13:44.283Z,18.60
2018-03-16T02:16:11.660Z,18.58
2018-03-16T02:18:41.131Z,18.43
2018-03-16T02:21:08.548Z,18.43
2018-03-16T02:23:35.956Z,17.87
2018-03-16T02:26:04.386Z,18.87
2018-03-16T02:28:31.923Z,19.90
2018-03-16T02:30:59.327Z,19.57
2018-03-16T02:33:26.732Z,17.60
2018-03-16T02:35:54.300Z,18.00
2018-03-16T02:38:21.854Z,19.53
2018-03-16T02:40:49.402Z,18.05
2018-03-16T02:43:16.913Z,18.67
2018-03-16T02:45:44.498Z,19.10
2018-03-16T02:48:11.988Z,19.73
2018-03-16T02:50:39.440Z,20.60
2018-03-16T02:53:07.642Z,18.70
2018-03-16T02:55:36.051Z,20.10
2018-03-16T02:58:03.505Z,19.87
2018-03-16T03:00:31.349Z,21.10
2018-03-16T03:02:58.763Z,22.33
2018-03-16T03:05:26.174Z,21.87
2018-03-16T03:07:53.577Z,21.23
2018-03-16T03:10:20.988Z,22.02
2018-03-16T03:12:48.434Z,21.85
2018-03-16T03:15:15.836Z,21.00
2018-03-16T03:17:43.359Z,21.90
2018-03-16T03:20:10.824Z,22.93
2018-03-16T03:22:38.228Z,21.00
2018-03-16T03:25:06.188Z,22.62
2018-03-16T03:27:33.592Z,21.77
2018-03-16T03:30:00.990Z,22.75
2018-03-16T03:32:28.424Z,21.00
2018-03-16T03:34:59.600Z,21.20
2018-03-16T03:37:27.102Z,21.07
2018-03-16T03:39:54.536Z,19.20
2018-03-16T03:42:22.017Z,17.83
2018-03-16T03:44:49.491Z,19.23
2018-03-16T03:47:16.883Z,16.70
2018-03-16T03:49:44.360Z,18.97
2018-03-16T03:52:11.816Z,17.96
2018-03-16T03:54:39.222Z,15.40
2018-03-16T03:57:06.608Z,17.00
2018-03-16T03:59:34.185Z,15.63
2018-03-16T04:02:01.630Z,16.90
2018-03-16T04:04:29.052Z,16.80
2018-03-16T04:06:56.452Z,17.10
2018-03-16T04:09:23.859Z,16.70
2018-03-16T04:11:51.278Z,17.10
2018-03-16T04:14:18.672Z,15.00
2018-03-16T04:16:46.188Z,15.87
2018-03-16T04:19:13.579Z,16.20
2018-03-16T04:21:40.977Z,14.70
2018-03-16T04:24:08.363Z,15.25
2018-03-16T04:26:36.460Z,15.32
2018-03-16T04:29:04.026Z,15.10
2018-03-16T04:31:31.510Z,15.52
2018-03-16T04:33:58.994Z,15.97
2018-03-16T04:36:26.622Z,16.53
2018-03-16T04:38:54.202Z,14.97
2018-03-16T04:41:21.607Z,16.13
2018-03-16T04:43:49.330Z,15.80
2018-03-16T04:46:16.762Z,15.03
2018-03-16T04:48:44.276Z,15.00
2018-03-16T04:51:11.708Z,14.27
2018-03-16T04:53:39.125Z,14.87
2018-03-16T04:56:06.715Z,14.48
2018-03-16T04:58:34.162Z,15.13
2018-03-16T05:01:01.671Z,16.63
2018-03-16T05:03:29.092Z,15.43
2018-03-16T05:05:56.684Z,14.47
2018-03-16T05:08:24.061Z,16.97
2018-03-16T05:10:51.444Z,15.00
2018-03-16T05:13:18.875Z,15.93
2018-03-16T05:15:46.650Z,15.13
2018-03-16T05:18:14.156Z,16.60
2018-03-16T05:20:41.547Z,14.82
2018-03-16T05:23:08.990Z,15.40
2018-03-16T05:25:37.654Z,14.57
2018-03-16T05:28:05.080Z,15.03
2018-03-16T05:30:32.519Z,14.53
2018-03-16T05:32:59.890Z,13.50
2018-03-16T05:35:27.295Z,13.53
2018-03-16T05:37:54.705Z,14.10
2018-03-16T05:40:22.122Z,14.03
2018-03-16T05:42:49.574Z,14.27
2018-03-16T05:45:16.984Z,13.88
2018-03-16T05:47:44.398Z,13.10
2018-03-16T05:50:11.816Z,14.40
2018-03-16T05:52:39.314Z,14.17
2018-03-16T05:55:10.598Z,14.77
2018-03-16T05:57:38.030Z,13.87
2018-03-16T06:00:05.419Z,12.37
2018-03-16T06:02:32.845Z,13.93
2018-03-16T06:05:00.301Z,14.80
2018-03-16T06:07:27.718Z,13.90
2018-03-16T06:09:55.150Z,13.30
2018-03-16T06:12:22.550Z,12.82
2018-03-16T06:14:49.942Z,13.45
2018-03-16T06:17:17.349Z,15.70
2018-03-16T06:19:45.067Z,17.47
2018-03-16T06:22:12.911Z,15.10
2018-03-16T06:24:40.336Z,17.23
2018-03-16T06:27:07.720Z,19.10
2018-03-16T06:29:35.123Z,18.15
2018-03-16T06:32:02.512Z,17.70
2018-03-16T06:34:29.919Z,18.23
2018-03-16T06:36:57.354Z,19.10
2018-03-16T06:39:24.774Z,17.80
2018-03-16T06:41:52.160Z,19.48
2018-03-16T06:44:19.565Z,20.80
2018-03-16T06:46:46.998Z,21.50
2018-03-16T06:49:14.396Z,20.90
2018-03-16T06:51:42.694Z,21.70
2018-03-16T06:54:10.294Z,21.53
2018-03-16T06:56:37.671Z,22.07
2018-03-16T06:59:05.070Z,23.40
2018-03-16T07:01:32.459Z,22.40
2018-03-16T07:03:59.871Z,22.70
2018-03-16T07:06:27.261Z,22.60
2018-03-16T07:08:54.667Z,23.37
2018-03-16T07:11:22.072Z,24.17
2018-03-16T07:13:49.479Z,23.37
2018-03-16T07:16:16.869Z,23.23
2018-03-16T07:18:44.281Z,23.90
2018-03-16T07:21:11.678Z,24.23
2018-03-16T07:23:39.152Z,24.17
2018-03-16T07:26:07.637Z,23.77
2018-03-16T07:28:35.030Z,25.57
2018-03-16T07:31:03.482Z,24.60
2018-03-16T07:33:30.876Z,24.40
2018-03-16T07:35:58.327Z,24.20
2018-03-16T07:38:25.809Z,26.13
2018-03-16T07:40:53.205Z,23.80
2018-03-16T07:43:20.594Z,25.07
2018-03-16T07:45:53.594Z,25.00
2018-03-16T07:48:21.021Z,25.17
2018-03-16T07:50:48.417Z,25.07
2018-03-16T07:53:15.814Z,23.07
2018-03-16T07:55:43.265Z,22.97
2018-03-16T07:58:10.679Z,21.83
2018-03-16T08:00:38.058Z,21.30
2018-03-16T08:03:05.667Z,22.20
2018-03-16T08:05:33.063Z,21.70
2018-03-16T08:08:00.483Z,18.90
2018-03-16T08:10:27.958Z,20.47
2018-03-16T08:12:55.405Z,21.00
2018-03-16T08:15:22.817Z,19.90
2018-03-16T08:17:50.221Z,21.43
2018-03-16T08:20:17.599Z,21.42
2018-03-16T08:22:45.005Z,21.13
2018-03-16T08:25:12.416Z,20.20
2018-03-16T08:27:40.490Z,19.43
2018-03-16T08:30:07.948Z,18.07
2018-03-16T08:32:35.361Z,21.50
2018-03-16T08:35:02.752Z,21.12
2018-03-16T08:37:30.176Z,19.17
2018-03-16T08:39:57.587Z,20.77
2018-03-16T08:42:25.025Z,20.60
2018-03-16T08:44:52.458Z,19.70
2018-03-16T08:47:19.844Z,18.20
2018-03-16T08:49:47.282Z,20.00
2018-03-16T08:52:14.646Z,18.90
2018-03-16T08:54:42.050Z,18.90
2018-03-16T08:57:09.455Z,16.87
2018-03-16T08:59:37.103Z,17.70
2018-03-16T09:02:04.491Z,17.27
2018-03-16T09:04:31.917Z,16.67
2018-03-16T09:06:59.304Z,17.03
2018-03-16T09:09:26.907Z,16.90
2018-03-16T09:11:54.306Z,18.07
2018-03-16T09:14:21.750Z,16.20
2018-03-16T09:16:49.225Z,16.47
2018-03-16T09:19:16.622Z,16.40
2018-03-16T09:21:44.025Z,18.23
2018-03-16T09:24:11.465Z,17.50
2018-03-16T09:26:38.868Z,16.90
2018-03-16T09:29:06.288Z,15.90
2018-03-16T09:31:33.682Z,16.43
2018-03-16T09:34:01.551Z,15.67
2018-03-16T09:36:28.953Z,15.90
2018-03-16T09:38:56.361Z,16.47
2018-03-16T09:41:23.767Z,15.90
2018-03-16T09:43:51.225Z,16.20
2018-03-16T09:46:18.604Z,14.37
2018-03-16T09:48:46.039Z,14.07
2018-03-16T09:51:13.441Z,14.44
2018-03-16T09:53:40.977Z,14.30
2018-03-16T09:56:08.369Z,14.10
2018-03-16T09:58:35.754Z,12.63
2018-03-16T10:01:03.288Z,13.90
2018-03-16T10:03:30.737Z,13.90
2018-03-16T10:05:58.156Z,11.83
2018-03-16T10:08:25.560Z,12.30
2018-03-16T10:10:52.961Z,11.97
2018-03-16T10:13:20.374Z,11.70
2018-03-16T10:15:48.256Z,13.50
2018-03-16T10:18:15.668Z,13.45
2018-03-16T10:20:43.141Z,12.80
2018-03-16T10:23:10.545Z,13.40
2018-03-16T10:25:38.489Z,15.27
2018-03-16T10:28:05.863Z,14.63
2018-03-16T10:30:33.262Z,14.40
2018-03-16T10:33:00.662Z,15.70
2018-03-16T10:35:28.069Z,15.33
2018-03-16T10:37:55.451Z,14.40
2018-03-16T10:40:22.837Z,14.87
2018-03-16T10:42:50.289Z,14.63
2018-03-16T10:45:17.654Z,14.80
2018-03-16T10:47:45.060Z,13.85
2018-03-16T10:50:12.686Z,15.93
2018-03-16T10:52:40.220Z,13.87
2018-03-16T10:55:08.592Z,14.35
2018-03-16T10:57:36.023Z,13.23
2018-03-16T11:00:03.480Z,12.30
2018-03-16T11:02:36.545Z,12.57
2018-03-16T11:05:09.789Z,12.40
2018-03-16T11:07:47.093Z,13.20
2018-03-16T11:10:14.485Z,13.23
2018-03-16T11:12:41.900Z,12.90
2018-03-16T11:15:09.651Z,13.70
2018-03-16T11:17:37.061Z,11.70
2018-03-16T11:20:04.440Z,12.77
2018-03-16T11:22:31.835Z,12.77
2018-03-16T11:24:59.233Z,13.00
2018-03-16T11:27:26.696Z,11.93
2018-03-16T11:29:54.070Z,11.23
2018-03-16T11:32:21.578Z,9.80
2018-03-16T11:34:49.031Z,10.73
2018-03-16T11:37:16.581Z,10.70
2018-03-16T11:39:43.975Z,10.80
2018-03-16T11:42:11.377Z,10.20
2018-03-16T11:44:38.860Z,10.23
2018-03-16T11:47:06.309Z,11.23
2018-03-16T11:49:34.109Z,10.63
2018-03-16T11:52:01.581Z,11.50
2018-03-16T11:54:28.954Z,11.10
2018-03-16T11:56:56.374Z,11.73
2018-03-16T11:59:23.765Z,13.20
2018-03-16T12:01:51.349Z,12.13
2018-03-16T12:04:18.770Z,13.57
2018-03-16T12:06:46.169Z,11.55
2018-03-16T12:09:13.577Z,13.98
2018-03-16T12:11:40.977Z,12.27
2018-03-16T12:14:09.146Z,13.27
2018-03-16T12:16:36.612Z,15.77
2018-03-16T12:19:05.034Z,13.03
2018-03-16T12:21:32.527Z,12.50
2018-03-16T12:24:00.059Z,12.40
2018-03-16T12:26:28.061Z,10.37
2018-03-16T12:28:57.206Z,10.10
2018-03-16T12:31:25.088Z,11.70
2018-03-16T12:33:52.819Z,11.80
2018-03-16T12:36:20.217Z,11.40
2018-03-16T12:38:47.653Z,10.73
2018-03-16T12:41:15.041Z,10.00
2018-03-16T12:43:42.445Z,9.80
2018-03-16T12:46:09.954Z,9.67
2018-03-16T12:48:37.361Z,9.00
2018-03-16T12:51:04.752Z,9.87
2018-03-16T12:53:32.250Z,9.90
2018-03-16T12:55:59.635Z,10.03
2018-03-16T12:58:27.093Z,9.18
2018-03-16T13:00:54.710Z,8.45
2018-03-16T13:03:22.129Z,6.97
2018-03-16T13:05:49.685Z,6.30
2018-03-16T13:08:17.085Z,6.70
2018-03-16T13:10:44.478Z,6.70
2018-03-16T13:13:11.856Z,6.07
2018-03-16T13:15:39.289Z,6.00
2018-03-16T13:18:06.661Z,6.27
2018-03-16T13:20:34.095Z,6.10
2018-03-16T13:23:01.859Z,7.37
2018-03-16T13:25:29.270Z,8.30
2018-03-16T13:27:56.685Z,10.73
2018-03-16T13:30:24.110Z,9.93
2018-03-16T13:32:51.614Z,10.15
2018-03-16T13:35:19.005Z,11.40
2018-03-16T13:37:46.457Z,10.77
2018-03-16T13:40:13.913Z,11.02
2018-03-16T13:42:41.308Z,10.83
2018-03-16T13:45:09.461Z,10.73
2018-03-16T13:47:36.871Z,11.57
2018-03-16T13:50:04.278Z,10.43
2018-03-16T13:52:31.669Z,8.70
2018-03-16T13:55:05.766Z,11.13
2018-03-16T13:57:33.170Z,9.50
2018-03-16T14:00:00.589Z,9.30
2018-03-16T14:02:28.027Z,9.73
2018-03-16T14:04:55.370Z,9.27
2018-03-16T14:07:22.761Z,8.90
2018-03-16T14:09:51.611Z,10.15
2018-03-16T14:12:19.003Z,10.77
2018-03-16T14:14:50.125Z,9.37
2018-03-16T14:17:19.085Z,9.33
2018-03-16T14:19:46.559Z,9.50
2018-03-16T14:22:14.032Z,8.20
2018-03-16T14:24:43.685Z,7.90
2018-03-16T14:27:12.219Z,8.87
2018-03-16T14:29:39.810Z,7.62
2018-03-16T14:32:07.919Z,6.73
2018-03-16T14:34:37.101Z,7.80
2018-03-16T14:37:04.990Z,7.53
2018-03-16T14:39:38.300Z,8.80
2018-03-16T14:42:06.578Z,8.77
2018-03-16T14:44:33.956Z,7.20
2018-03-16T14:47:01.495Z,7.53
2018-03-16T14:49:28.859Z,8.70
2018-03-16T14:51:56.276Z,7.73
2018-03-16T14:54:23.678Z,9.00
2018-03-16T14:56:51.061Z,8.10
2018-03-16T14:59:18.450Z,5.40
2018-03-16T15:01:45.891Z,3.87
2018-03-16T15:04:13.258Z,2.77
2018-03-16T15:06:40.621Z,2.97
2018-03-16T15:09:08.009Z,2.53
2018-03-16T15:11:35.399Z,2.33
2018-03-16T15:14:02.784Z,2.00
2018-03-16T15:16:30.179Z,1.93
2018-03-16T15:18:57.589Z,2.15
2018-03-16T15:21:25.005Z,2.07
2018-03-16T15:23:52.384Z,1.50
2018-03-16T15:26:19.789Z,1.97
2018-03-16T15:28:47.197Z,1.60
2018-03-16T15:31:14.585Z,1.80
2018-03-16T15:33:42.017Z,1.87
2018-03-16T15:36:10.181Z,2.00
2018-03-16T15:38:37.657Z,2.40
2018-03-16T15:41:05.039Z,1.77
2018-03-16T15:43:33.936Z,2.20
2018-03-16T15:46:01.336Z,1.83
2018-03-16T15:48:28.735Z,2.40
2018-03-16T15:50:56.097Z,1.73
2018-03-16T15:53:23.501Z,2.50
2018-03-16T15:55:50.958Z,1.80
2018-03-16T15:58:18.357Z,2.13
2018-03-16T16:00:45.745Z,2.00
2018-03-16T16:03:13.142Z,2.00
2018-03-16T16:05:40.570Z,1.87
2018-03-16T16:08:08.108Z,2.10
2018-03-16T16:10:35.497Z,2.33
2018-03-16T16:13:02.870Z,2.20
2018-03-16T16:15:30.252Z,2.00
2018-03-16T16:17:58.024Z,2.30
2018-03-16T16:20:25.442Z,2.23
2018-03-16T16:22:53.037Z,1.92
2018-03-16T16:25:20.550Z,2.30
2018-03-16T16:27:48.004Z,2.80
2018-03-16T16:30:15.486Z,3.47
2018-03-16T16:32:43.458Z,2.97
2018-03-16T16:35:10.853Z,3.33
2018-03-16T16:37:38.235Z,3.50
2018-03-16T16:40:05.659Z,4.33
2018-03-16T16:42:33.062Z,4.13
2018-03-16T16:45:00.501Z,4.30
2018-03-16T16:47:27.940Z,4.80
2018-03-16T16:49:55.333Z,3.97
2018-03-16T16:52:22.731Z,4.70
2018-03-16T16:54:50.228Z,6.87
2018-03-16T16:57:17.617Z,9.10
2018-03-16T16:59:45.066Z,10.70
2018-03-16T17:02:12.452Z,11.93
2018-03-16T17:04:40.501Z,11.45
2018-03-16T17:07:07.925Z,13.17
2018-03-16T17:09:35.625Z,11.67
2018-03-16T17:12:03.041Z,13.57
2018-03-16T17:14:30.427Z,12.40
2018-03-16T17:16:57.901Z,13.77
2018-03-16T17:19:25.273Z,14.38
2018-03-16T17:21:52.659Z,16.60
2018-03-16T17:24:20.046Z,14.60
2018-03-16T17:26:47.448Z,14.70
2018-03-16T17:29:14.842Z,14.52
2018-03-16T17:31:42.280Z,14.87
2018-03-16T17:34:10.754Z,13.10
2018-03-16T17:36:38.177Z,14.03
2018-03-16T17:39:05.652Z,14.70
2018-03-16T17:41:33.045Z,14.70
2018-03-16T17:44:00.437Z,16.50
2018-03-16T17:46:27.821Z,14.43
2018-03-16T17:48:55.224Z,15.63
2018-03-16T17:51:22.640Z,16.23
2018-03-16T17:53:50.041Z,16.53
2018-03-16T17:56:17.602Z,16.43
2018-03-16T17:58:45.005Z,17.30
2018-03-16T18:01:12.421Z,18.67
2018-03-16T18:03:40.867Z,18.86
2018-03-16T18:06:08.301Z,19.60
2018-03-16T18:08:35.757Z,16.90
2018-03-16T18:11:03.196Z,16.50
2018-03-16T18:13:30.617Z,14.27
2018-03-16T18:15:58.010Z,15.27
2018-03-16T18:18:25.399Z,16.43
2018-03-16T18:20:52.810Z,15.43
2018-03-16T18:23:20.369Z,14.40
2018-03-16T18:25:47.937Z,15.48
2018-03-16T18:28:15.324Z,15.10
2018-03-16T18:30:42.713Z,14.77
2018-03-16T18:33:11.044Z,15.88
2018-03-16T18:35:38.442Z,15.37
2018-03-16T18:38:05.834Z,15.20
2018-03-16T18:40:33.230Z,13.50
2018-03-16T18:43:00.639Z,13.67
2018-03-16T18:45:28.113Z,14.75
2018-03-16T18:47:55.496Z,13.50
2018-03-16T18:50:22.889Z,14.20
2018-03-16T18:52:50.294Z,14.95
2018-03-16T18:55:18.818Z,14.90
2018-03-16T18:57:46.248Z,14.38
2018-03-16T19:00:13.601Z,14.30
2018-03-16T19:02:41.190Z,14.00
2018-03-16T19:05:08.737Z,14.20
2018-03-16T19:07:36.137Z,14.23
2018-03-16T19:10:03.518Z,14.27
2018-03-16T19:12:30.921Z,12.03
2018-03-16T19:14:58.355Z,13.65
2018-03-16T19:17:25.848Z,13.00
2018-03-16T19:19:53.236Z,12.02
2018-03-16T19:22:20.649Z,12.33
2018-03-16T19:24:48.085Z,10.73
2018-03-16T19:27:15.526Z,10.07
2018-03-16T19:29:42.900Z,11.37
2018-03-16T19:32:10.319Z,10.80
2018-03-16T19:34:37.696Z,11.93
2018-03-16T19:37:05.115Z,13.37
2018-03-16T19:39:32.680Z,11.90
2018-03-16T19:42:00.103Z,12.50
2018-03-16T19:44:27.500Z,13.90
2018-03-16T19:46:55.483Z,12.98
2018-03-16T19:49:22.887Z,12.70
2018-03-16T19:51:50.278Z,11.97
2018-03-16T19:54:17.675Z,11.47
2018-03-16T19:56:45.064Z,12.40
2018-03-16T19:59:12.464Z,11.10
2018-03-16T20:01:39.868Z,12.23
2018-03-16T20:04:07.287Z,11.83
2018-03-16T20:06:34.658Z,12.80
2018-03-16T20:09:02.065Z,12.47
2018-03-16T20:11:29.473Z,12.57
2018-03-16T20:13:56.881Z,12.03
2018-03-16T20:16:24.274Z,11.88
2018-03-16T20:18:51.687Z,13.18
2018-03-16T20:21:19.092Z,12.43
2018-03-16T20:23:46.520Z,11.43
2018-03-16T20:26:13.922Z,12.30
2018-03-16T20:28:41.694Z,12.18
2018-03-16T20:31:09.089Z,12.13
2018-03-16T20:33:36.474Z,11.47
2018-03-16T20:36:03.897Z,11.00
2018-03-16T20:38:31.293Z,10.23
2018-03-16T20:40:58.693Z,11.38
2018-03-16T20:43:26.073Z,9.87
2018-03-16T20:45:53.575Z,9.93
2018-03-16T20:48:22.077Z,10.90
2018-03-16T20:50:49.470Z,10.80
2018-03-16T20:53:16.865Z,10.77
2018-03-16T20:55:44.252Z,11.03
2018-03-16T20:58:11.822Z,11.60
2018-03-16T21:00:39.285Z,12.70
2018-03-16T21:03:06.679Z,13.20
2018-03-16T21:05:34.077Z,11.87
2018-03-16T21:08:02.028Z,12.60
2018-03-16T21:10:29.437Z,12.60
2018-03-16T21:12:56.849Z,13.70
2018-03-16T21:15:24.254Z,11.12
2018-03-16T21:17:51.646Z,11.17
2018-03-16T21:20:19.084Z,12.97
2018-03-16T21:22:46.427Z,11.95
2018-03-16T21:25:13.915Z,11.27
2018-03-16T21:27:42.017Z,12.17
2018-03-16T21:30:09.402Z,12.20
2018-03-16T21:32:36.821Z,11.80
2018-03-16T21:35:04.217Z,11.60
2018-03-16T21:37:31.625Z,12.30
2018-03-16T21:39:59.008Z,12.30
2018-03-16T21:42:26.429Z,13.52
2018-03-16T21:44:53.941Z,13.35
2018-03-16T21:47:21.333Z,13.85
2018-03-16T21:49:48.722Z,13.10
2018-03-16T21:52:16.104Z,13.97
2018-03-16T21:54:43.517Z,12.90
2018-03-16T21:57:10.924Z,13.47
2018-03-16T21:59:38.313Z,13.07
2018-03-16T22:02:05.699Z,13.97
2018-03-16T22:04:33.144Z,12.93
2018-03-16T22:07:00.556Z,13.13
2018-03-16T22:09:27.980Z,13.57
2018-03-16T22:11:55.381Z,14.80
2018-03-16T22:14:22.862Z,14.23
2018-03-16T22:16:50.252Z,13.73
2018-03-16T22:19:17.641Z,14.90
2018-03-16T22:21:45.035Z,14.77
2018-03-16T22:24:13.196Z,14.65
2018-03-16T22:26:40.595Z,15.90
2018-03-16T22:29:08.045Z,15.93
2018-03-16T22:31:35.604Z,15.20
2018-03-16T22:34:02.980Z,14.65
2018-03-16T22:36:30.381Z,15.43
2018-03-16T22:38:57.767Z,15.90
2018-03-16T22:41:25.189Z,15.93
2018-03-16T22:43:52.622Z,17.70
2018-03-16T22:46:20.005Z,17.08
2018-03-16T22:48:47.392Z,17.17
2018-03-16T22:51:14.930Z,18.00
2018-03-16T22:53:43.277Z,16.60
2018-03-16T22:56:10.684Z,16.90
2018-03-16T22:58:38.054Z,17.00
2018-03-16T23:01:05.466Z,18.43
2018-03-16T23:03:32.934Z,18.30
2018-03-16T23:06:00.362Z,18.25
2018-03-16T23:08:27.781Z,18.40
2018-03-16T23:10:55.173Z,19.50
2018-03-16T23:13:22.648Z,18.20
2018-03-16T23:15:50.041Z,17.60
2018-03-16T23:18:17.480Z,18.90
2018-03-16T23:20:44.849Z,19.93
2018-03-16T23:23:12.570Z,18.75
2018-03-16T23:25:39.960Z,19.20
2018-03-16T23:28:07.350Z,18.43
2018-03-16T23:30:34.803Z,17.70
2018-03-16T23:33:02.221Z,20.10
2018-03-16T23:35:29.615Z,19.47
2018-03-16T23:37:57.022Z,20.77
2018-03-16T23:40:24.401Z,18.35
2018-03-16T23:42:51.849Z,18.85
2018-03-16T23:45:19.302Z,19.60
2018-03-16T23:47:46.692Z,19.10
2018-03-16T23:50:14.096Z,19.80
2018-03-16T23:52:43.342Z,19.90
2018-03-16T23:55:10.752Z,19.63
2018-03-16T23:57:38.135Z,19.20
